Ringold, Oklahoma
Current Conditions -  °F | °C
As of 11:15 PM on Wednesday 22 Oct 2014 (Local Time) from K4O4 Reporting Station
Clear Clear  
Wind Chill: 59°   Ceiling: Unl
Heat Index: 59°   Visibility: 10mi
Dew Point: 52°   Wind: 6mph
Humidity: 77%   Direction: 90°E
Pressure: 30.16"   Gusts: NA
Location:  34.22°N, 95.13°W
Report Text: K4O4 230415Z AUTO 09005KT 10SM CLR 15/11 A3016 RMK AO2
Loading
Personal Weather Stations






























Interactive Weather Map
Tropical Storm Tracking
New forecast layout! Learn more

10-Day Weather Forecast

Advertisements
Track Severe Weather on mobile